| Pilot: | GLD1134 Wellinghton L. | Aircraft: | Beechcraft | Distance: | 193NM |
| From: | SWLC | To: | SBTG | Duration: | 1.24 |
| Validation: | Valid | Tipo: | Charter | Tail Number: | PT-GLD |
| ZFW: | 4373 | Block Fuel/Init FOB | 192flight_details.php/120 | Flight Fuel | 192 |
| Passengers: | 5 | Cargo: | 100 | Alternate: | SDDR |
| Departure Time: | 1340 | Cruise Speed: | 0190 | Flight Level: | F105 |
| Flight Type: | VFR | Aircraft Type: | BE58 | Weight Unit: | Kg |
| Date: | 12/04/2026 | Comments: | GOLD ACARS | Network: | VATSIM |
| Crash: | No | Validator Comments: | Rating | 109.306 |
| ROUTE | 1825S05106W 1913S05118W 2004S05130W |
| REMARKS | OPR/GOLD VIRTUAL AIRLINES PER/A RMK/FROM SWLC RMK/PIC GLD1134 |
| Crash | OK | Beacon Lights off with engine on | OK | Speed above 250KIAS below 10.000ft | OK |
| Landing Lights OFF below 10.000ft | Fault | Landing Lights ON above 10.000ft | OK | Stall | OK |
| Overspeed | OK | Pause | OK | Refuel | OK |
| Slew | OK | Taxi Lights OFF during taxi | OK | Land Lights OFF during take off | OK |
| Landing Lights OFF during landing | OK | Landed in not planned airfield | OK | Taxi speed above 25 kt | OK |
| Incorrect QNH during take off | OK | Incorrect QNH during landing | Fault |
| Wind: | 63º/6 kt | Heading: | 232 |
| VS: | -106 ft/min | IAS: | 79 kt |
| Gforce: | 1.1744 G | Bank: | -1.38 |
| Pitch | 5.29 | Flaps | 100 |
| Nav Lights | ON | Landing Lights | ON |
| Beacon Lights | ON | Strobe Lights | ON |
| DATE | EVENT | IAS | ALTITUDE |
|---|---|---|---|
| 2026-04-12 13:40:28 | GOLD ACARS VERSION 3.3.6.9 | 0 | 0 |
| 2026-04-12 13:40:28 | BOARDING | 0 | 2468 |
| 2026-04-12 13:40:28 | LITTLENAVMAP ON | 0 | 2468 |
| 2026-04-12 13:40:36 | BCN LIGHTS ON | 0 | 2468 |
| 2026-04-12 13:41:01 | STARTING ENGINE 1 | 0 | 2468 |
| 2026-04-12 13:41:12 | STARTING ENGINE 2 | 0 | 2468 |
| 2026-04-12 13:46:23 | TAXI LIGHTS ON | 0 | 2468 |
| 2026-04-12 13:46:36 | TAXI TO THE RWY | 0 | 2476 |
| 2026-04-12 13:47:44 | STOPPING ENGINE 1 | 0 | 2479 |
| 2026-04-12 13:47:45 | STARTING ENGINE 1 | 0 | 2479 |
| 2026-04-12 13:47:46 | STOPPING ENGINE 2 | 0 | 2479 |
| 2026-04-12 13:47:47 | STARTING ENGINE 2 | 0 | 2479 |
| 2026-04-12 13:47:53 | STOPPING ENGINE 2 | 0 | 2479 |
| 2026-04-12 13:47:54 | STARTING ENGINE 2 | 0 | 2479 |
| 2026-04-12 13:47:56 | STOPPING ENGINE 1 | 0 | 2479 |
| 2026-04-12 13:47:57 | STARTING ENGINE 1 | 0 | 2479 |
| 2026-04-12 13:48:58 | STB LIGHTS ON | 0 | 2479 |
| 2026-04-12 13:48:59 | TAXI LIGHTS OFF | 0 | 2479 |
| 2026-04-12 13:49:06 | FLAP 50% | 0 | 2479 |
| 2026-04-12 13:50:28 | GEAR UP | 85 | 2475 |
| 2026-04-12 13:50:35 | FLAP 0% | 102 | 2496 |
| 2026-04-12 13:50:44 | CLIMBING | 122 | 2527 |
| 2026-04-12 13:51:57 | AP ENGAGED | 135 | 3925 |
| 2026-04-12 13:52:06 | CRUISE | 147 | 4030 |
| 2026-04-12 13:52:09 | CLIMBING | 148 | 4037 |
| 2026-04-12 13:52:17 | CRUISE | 154 | 4112 |
| 2026-04-12 13:52:21 | CLIMBING | 154 | 4126 |
| 2026-04-12 13:52:33 | CRUISE | 160 | 4244 |
| 2026-04-12 13:52:35 | CLIMBING | 160 | 4256 |
| 2026-04-12 13:54:42 | CRUISE | 164 | 5484 |
| 2026-04-12 13:54:43 | CLIMBING | 164 | 5493 |
| 2026-04-12 13:55:08 | CRUISE | 164 | 5735 |
| 2026-04-12 13:55:10 | CLIMBING | 162 | 5752 |
| 2026-04-12 13:57:09 | CRUISE | 157 | 6878 |
| 2026-04-12 13:57:11 | CLIMBING | 157 | 6891 |
| 2026-04-12 13:58:24 | CRUISE | 158 | 7578 |
| 2026-04-12 13:58:25 | CLIMBING | 157 | 7587 |
| 2026-04-12 14:02:58 | LND LIGHTS OFF | 136 | 10192 |
| 2026-04-12 14:03:31 | CRUISE | 134 | 10486 |
| 2026-04-12 14:32:26 | DESCEND | 161 | 10509 |
| 2026-04-12 14:34:33 | LIGHTS OFF BELOW 10000 ft | 157 | 9498 |
| 2026-04-12 14:41:19 | LND LIGHTS ON | 172 | 6284 |
| 2026-04-12 14:49:10 | AP DISENGAGED | 161 | 2669 |
| 2026-04-12 14:51:16 | CLIMBING | 174 | 1155 |
| 2026-04-12 14:51:26 | GEAR DOWN | 125 | 1853 |
| 2026-04-12 14:51:32 | FLAP 50% | 128 | 1952 |
| 2026-04-12 14:51:37 | CRUISE | 127 | 1999 |
| 2026-04-12 14:51:41 | LANDING | 127 | 1997 |
| 2026-04-12 14:51:45 | CLIMBING | 126 | 1999 |
| 2026-04-12 14:51:50 | CRUISE | 124 | 2062 |
| 2026-04-12 14:51:52 | LANDING | 124 | 2057 |
| 2026-04-12 14:52:18 | FLAP 100% | 126 | 1458 |
| 2026-04-12 14:52:52 | LANDED AIRPORT [SBTG] | 80 | 1152 |
| 2026-04-12 14:52:52 | LANDED - VS: -106 ft/min | 79 | 1151 |
| 2026-04-12 14:52:52 | LANDING WITH INCORRECT QNH - SET:1016 LOCAL: 1013 | 79 | 1151 |
| 2026-04-12 14:53:14 | TAXI TO THE GATE | 29 | 1145 |
| 2026-04-12 14:53:14 | FLAP 0% | 24 | 1145 |
| 2026-04-12 14:53:49 | TAXI LIGHTS ON | 11 | 1148 |
| 2026-04-12 14:53:50 | STB LIGHTS OFF | 11 | 1148 |
| 2026-04-12 14:54:30 | AT THE GATE | 0 | 1148 |
| 2026-04-12 14:54:35 | STOPPING ENGINE 1 | 0 | 1148 |
| 2026-04-12 14:54:36 | STOPPING ENGINE 2 | 0 | 1148 |
| 2026-04-12 14:54:40 | TAXI LIGHTS OFF | 0 | 1148 |
| 2026-04-12 14:54:41 | NAV LIGHTS OFF | 0 | 1148 |
| 2026-04-12 14:54:47 | BCN LIGHTS OFF | 0 | 1148 |
| 2026-04-12 14:54:47 | FLIGHT FINISHED | 0 | 1148 |
| DATE | IAS | GS | ALTITUDE | FUEL USED | OAT | Flight Phase |
|---|---|---|---|---|---|---|
| 2026-04-12 13:42:28 | 0 | 0 | 2468 | 0 | 30 | BOARDING |
| 2026-04-12 13:43:28 | 0 | 0 | 2468 | 0 | 30 | BOARDING |
| 2026-04-12 13:44:28 | 0 | 0 | 2468 | 0 | 30 | BOARDING |
| 2026-04-12 13:45:29 | 0 | 0 | 2468 | 0 | 30 | BOARDING |
| 2026-04-12 13:46:29 | 0 | 1 | 2468 | 0 | 30 | BOARDING |
| 2026-04-12 13:47:29 | 0 | 0 | 2479 | 0 | 30 | BOARDING |
| 2026-04-12 13:48:29 | 0 | 0 | 2479 | 0 | 30 | TAXI TO THE RWY |
| 2026-04-12 13:49:29 | 0 | 11 | 2472 | 0 | 30 | TAXI TO THE RWY |
| 2026-04-12 13:50:29 | 88 | 95 | 2478 | 1 | 30 | TAXI TO THE RWY |
| 2026-04-12 13:51:29 | 130 | 156 | 3549 | 3 | 25 | TAXI TO THE RWY |
| 2026-04-12 13:52:29 | 154 | 179 | 4216 | 4 | 23 | CLIMBING |
| 2026-04-12 13:53:29 | 163 | 185 | 4795 | 6 | 21 | CLIMBING |
| 2026-04-12 13:54:29 | 162 | 187 | 5362 | 8 | 19 | CLIMBING |
| 2026-04-12 13:55:29 | 158 | 184 | 5930 | 9 | 17 | CLIMBING |
| 2026-04-12 13:56:30 | 161 | 188 | 6514 | 11 | 16 | CLIMBING |
| 2026-04-12 13:57:30 | 156 | 183 | 7074 | 12 | 14 | CLIMBING |
| 2026-04-12 13:58:30 | 160 | 186 | 7633 | 13 | 13 | CLIMBING |
| 2026-04-12 13:59:30 | 154 | 181 | 8206 | 15 | 12 | CLIMBING |
| 2026-04-12 14:00:30 | 151 | 178 | 8785 | 16 | 11 | CLIMBING |
| 2026-04-12 14:01:30 | 146 | 171 | 9370 | 17 | 10 | CLIMBING |
| 2026-04-12 14:02:30 | 140 | 164 | 9960 | 19 | 9 | CLIMBING |
| 2026-04-12 14:03:31 | 135 | 160 | 10484 | 20 | 8 | CLIMBING |
| 2026-04-12 14:04:31 | 146 | 173 | 10504 | 21 | 8 | CLIMBING |
| 2026-04-12 14:05:31 | 153 | 180 | 10499 | 22 | 8 | CRUISE |
| 2026-04-12 14:06:31 | 160 | 188 | 10507 | 23 | 8 | CRUISE |
| 2026-04-12 14:07:31 | 162 | 191 | 10507 | 24 | 8 | CRUISE |
| 2026-04-12 14:08:31 | 161 | 190 | 10505 | 25 | 8 | CRUISE |
| 2026-04-12 14:09:31 | 161 | 190 | 10506 | 26 | 8 | CRUISE |
| 2026-04-12 14:10:31 | 163 | 192 | 10508 | 27 | 7 | CRUISE |
| 2026-04-12 14:11:31 | 161 | 190 | 10507 | 29 | 8 | CRUISE |
| 2026-04-12 14:12:31 | 161 | 190 | 10506 | 30 | 7 | CRUISE |
| 2026-04-12 14:13:32 | 162 | 193 | 10508 | 31 | 8 | CRUISE |
| 2026-04-12 14:14:32 | 162 | 192 | 10505 | 32 | 8 | CRUISE |
| 2026-04-12 14:15:32 | 162 | 191 | 10503 | 33 | 8 | CRUISE |
| 2026-04-12 14:16:32 | 161 | 191 | 10502 | 34 | 7 | CRUISE |
| 2026-04-12 14:17:32 | 162 | 192 | 10503 | 35 | 8 | CRUISE |
| 2026-04-12 14:18:32 | 161 | 191 | 10502 | 36 | 8 | CRUISE |
| 2026-04-12 14:19:32 | 162 | 193 | 10506 | 37 | 8 | CRUISE |
| 2026-04-12 14:20:32 | 162 | 191 | 10505 | 38 | 8 | CRUISE |
| 2026-04-12 14:21:32 | 161 | 190 | 10500 | 40 | 8 | CRUISE |
| 2026-04-12 14:22:32 | 161 | 190 | 10500 | 41 | 8 | CRUISE |
| 2026-04-12 14:23:33 | 163 | 191 | 10505 | 42 | 8 | CRUISE |
| 2026-04-12 14:24:33 | 163 | 192 | 10509 | 43 | 8 | CRUISE |
| 2026-04-12 14:25:33 | 162 | 191 | 10508 | 44 | 8 | CRUISE |
| 2026-04-12 14:26:33 | 163 | 192 | 10503 | 45 | 8 | CRUISE |
| 2026-04-12 14:27:33 | 162 | 191 | 10504 | 46 | 8 | CRUISE |
| 2026-04-12 14:28:33 | 161 | 191 | 10502 | 47 | 8 | CRUISE |
| 2026-04-12 14:29:33 | 163 | 191 | 10506 | 48 | 8 | CRUISE |
| 2026-04-12 14:30:33 | 163 | 192 | 10504 | 49 | 8 | CRUISE |
| 2026-04-12 14:31:33 | 162 | 191 | 10506 | 51 | 8 | CRUISE |
| 2026-04-12 14:32:33 | 162 | 191 | 10458 | 52 | 8 | CRUISE |
| 2026-04-12 14:33:34 | 154 | 181 | 9984 | 52 | 9 | DESCEND |
| 2026-04-12 14:34:34 | 158 | 184 | 9490 | 53 | 10 | DESCEND |
| 2026-04-12 14:35:34 | 160 | 186 | 8992 | 54 | 11 | DESCEND |
| 2026-04-12 14:36:34 | 163 | 189 | 8508 | 55 | 12 | DESCEND |
| 2026-04-12 14:37:34 | 169 | 194 | 8035 | 56 | 13 | DESCEND |
| 2026-04-12 14:38:34 | 172 | 197 | 7562 | 57 | 14 | DESCEND |
| 2026-04-12 14:39:34 | 177 | 201 | 7097 | 59 | 15 | DESCEND |
| 2026-04-12 14:40:35 | 173 | 196 | 6625 | 60 | 15 | DESCEND |
| 2026-04-12 14:41:35 | 173 | 196 | 6152 | 61 | 17 | DESCEND |
| 2026-04-12 14:42:35 | 173 | 195 | 5665 | 62 | 17 | DESCEND |
| 2026-04-12 14:43:35 | 173 | 193 | 5185 | 63 | 19 | DESCEND |
| 2026-04-12 14:44:35 | 173 | 193 | 4879 | 64 | 19 | DESCEND |
| 2026-04-12 14:45:35 | 176 | 196 | 4401 | 65 | 21 | DESCEND |
| 2026-04-12 14:46:35 | 175 | 192 | 3910 | 66 | 22 | DESCEND |
| 2026-04-12 14:47:35 | 175 | 193 | 3429 | 67 | 24 | DESCEND |
| 2026-04-12 14:48:35 | 172 | 186 | 2951 | 68 | 25 | DESCEND |
| 2026-04-12 14:49:35 | 159 | 174 | 2397 | 68 | 27 | DESCEND |
| 2026-04-12 14:50:36 | 170 | 176 | 1600 | 69 | 31 | DESCEND |
| 2026-04-12 14:51:36 | 127 | 131 | 1983 | 70 | 28 | DESCEND |
| 2026-04-12 14:52:36 | 97 | 111 | 1325 | 71 | 32 | CLIMBING |
| 2026-04-12 14:53:36 | 8 | 12 | 1145 | 71 | 32 | LANDING |
| 2026-04-12 14:54:36 | 0 | 0 | 1148 | 71 | 32 | TAXI TO THE GATE |